Time;durP1;ratioP1;P1;durP2;ratioP2;P2;SDS_P1;SDS_P2;PMS_P1;PMS_P2;Temp;Humidity;BMP_temperature;BMP_pressure;BME280_temperature;BME280_humidity;BME280_pressure;Samples;Min_cycle;Max_cycle;Signal;HPM_P1;HPM_P2
2021/10/18 00:01:22;;;;;;;26.63;17.92;;;5.90;99.90;;;;;;5053488;28;20025;-67
2021/10/18 00:03:48;;;;;;;25.80;17.52;;;5.90;99.90;;;;;;5053461;28;20056;-66
2021/10/18 00:06:13;;;;;;;28.30;18.67;;;6.00;99.90;;;;;;5053443;28;20017;-66
2021/10/18 00:08:39;;;;;;;25.38;17.85;;;6.00;99.90;;;;;;5053117;28;20462;-66
2021/10/18 00:11:05;;;;;;;32.13;19.90;;;6.00;99.90;;;;;;5051950;28;20041;-67
2021/10/18 00:13:31;;;;;;;30.42;19.77;;;6.00;99.90;;;;;;5052184;28;20040;-66
2021/10/18 00:15:57;;;;;;;31.60;21.25;;;6.10;99.90;;;;;;5053327;28;20025;-66
2021/10/18 00:18:22;;;;;;;35.60;22.67;;;6.10;99.90;;;;;;5053347;28;20021;-66
2021/10/18 00:20:48;;;;;;;36.45;22.90;;;6.20;99.90;;;;;;5056480;28;20021;-66
2021/10/18 00:23:14;;;;;;;33.88;21.83;;;6.30;99.90;;;;;;5056682;28;20032;-67
2021/10/18 00:25:39;;;;;;;34.55;23.10;;;6.30;99.90;;;;;;5056598;28;20053;-66
2021/10/18 00:28:05;;;;;;;32.78;21.55;;;6.40;99.90;;;;;;5056835;28;20061;-66
2021/10/18 00:30:31;;;;;;;37.97;22.45;;;6.40;99.90;;;;;;5055349;28;20033;-66
2021/10/18 00:32:56;;;;;;;30.08;21.33;;;6.40;99.90;;;;;;5056645;28;20032;-67
2021/10/18 00:35:22;;;;;;;31.95;20.75;;;6.40;99.90;;;;;;5056693;28;20488;-67
2021/10/18 00:37:47;;;;;;;32.42;21.58;;;6.40;99.90;;;;;;5056389;28;20095;-67
2021/10/18 00:40:14;;;;;;;37.40;23.23;;;6.40;99.90;;;;;;5056570;28;20075;-67
2021/10/18 00:42:40;;;;;;;30.38;20.77;;;6.40;99.90;;;;;;5056250;28;20413;-68
2021/10/18 00:45:07;;;;;;;37.65;22.70;;;6.50;99.90;;;;;;5056257;28;20382;-67
2021/10/18 00:47:32;;;;;;;37.08;22.67;;;6.50;99.90;;;;;;5056462;28;20086;-67
2021/10/18 00:49:58;;;;;;;31.80;21.20;;;6.50;99.90;;;;;;5056405;28;20459;-67
2021/10/18 00:52:24;;;;;;;34.75;21.42;;;6.50;99.90;;;;;;5056342;28;20040;-67
2021/10/18 00:54:51;;;;;;;33.65;22.48;;;6.50;99.90;;;;;;5056327;28;20031;-67
2021/10/18 00:57:18;;;;;;;40.90;24.15;;;6.50;99.90;;;;;;5055718;28;20449;-66
2021/10/18 00:59:44;;;;;;;35.88;22.38;;;6.50;99.90;;;;;;5056255;28;20439;-67
2021/10/18 01:02:09;;;;;;;34.45;21.35;;;6.50;99.90;;;;;;5054383;28;20025;-66
2021/10/18 01:04:35;;;;;;;33.45;21.67;;;6.40;99.90;;;;;;5054461;28;20036;-68
2021/10/18 01:07:02;;;;;;;32.15;20.25;;;6.40;99.90;;;;;;5055844;28;20447;-67
2021/10/18 01:09:27;;;;;;;29.98;19.58;;;6.30;99.90;;;;;;5056039;28;20021;-67
2021/10/18 01:11:53;;;;;;;32.40;20.45;;;6.30;99.90;;;;;;5055486;28;20131;-68
2021/10/18 01:14:18;;;;;;;29.63;19.42;;;6.20;99.90;;;;;;5054807;28;20020;-67
2021/10/18 01:16:44;;;;;;;32.20;20.48;;;6.20;99.90;;;;;;5055364;28;20530;-67
2021/10/18 01:19:21;;;;;;;28.98;19.33;;;6.20;99.90;;;;;;5055601;28;20025;-68
2021/10/18 01:21:48;;;;;;;30.20;19.20;;;6.10;99.90;;;;;;5055288;28;20482;-67
2021/10/18 01:24:14;;;;;;;33.10;19.65;;;6.10;99.90;;;;;;5055816;28;20024;-67
2021/10/18 01:26:40;;;;;;;36.95;20.27;;;6.10;99.90;;;;;;5055750;28;20459;-68
2021/10/18 01:29:06;;;;;;;31.85;19.48;;;6.10;99.90;;;;;;5055722;28;20063;-66
2021/10/18 01:31:32;;;;;;;29.65;20.40;;;6.10;99.90;;;;;;5055326;28;20474;-67
2021/10/18 01:33:57;;;;;;;30.70;19.70;;;6.10;99.90;;;;;;5055320;28;20454;-66
2021/10/18 01:36:23;;;;;;;30.98;19.55;;;6.10;99.90;;;;;;5055576;28;20174;-67
2021/10/18 01:38:49;;;;;;;28.80;19.30;;;6.00;99.90;;;;;;5055252;28;20021;-67
2021/10/18 01:41:14;;;;;;;29.58;19.67;;;6.00;99.90;;;;;;5054009;28;20021;-66
2021/10/18 01:43:40;;;;;;;27.83;18.42;;;6.00;99.90;;;;;;5054286;28;20053;-66
2021/10/18 01:46:06;;;;;;;30.75;18.52;;;6.00;99.90;;;;;;5054247;28;20037;-68
2021/10/18 01:48:32;;;;;;;29.63;19.23;;;6.00;99.90;;;;;;5055334;28;20478;-66
2021/10/18 01:50:58;;;;;;;25.95;17.38;;;6.00;99.90;;;;;;5055253;28;20029;-67
2021/10/18 01:53:24;;;;;;;23.85;16.75;;;6.00;99.90;;;;;;5055158;28;20029;-66
2021/10/18 01:55:50;;;;;;;25.67;17.10;;;6.00;99.90;;;;;;5054886;28;20033;-66
2021/10/18 01:58:16;;;;;;;30.08;18.35;;;5.90;99.90;;;;;;5054867;28;20029;-66
2021/10/18 02:00:42;;;;;;;25.45;17.40;;;5.90;99.90;;;;;;5055096;28;20441;-67
2021/10/18 02:03:09;;;;;;;27.98;17.17;;;6.00;99.90;;;;;;5054497;28;20029;-66
2021/10/18 02:05:34;;;;;;;26.48;18.77;;;6.00;99.90;;;;;;5054994;28;20072;-66
2021/10/18 02:08:00;;;;;;;24.55;17.80;;;5.90;99.90;;;;;;5054950;28;20049;-66
2021/10/18 02:10:25;;;;;;;28.58;18.27;;;6.00;99.90;;;;;;5054616;28;20029;-68
2021/10/18 02:12:51;;;;;;;31.85;18.75;;;6.00;99.90;;;;;;5054129;28;20510;-68
2021/10/18 02:15:17;;;;;;;32.45;19.08;;;6.10;99.90;;;;;;5053013;28;20382;-66
2021/10/18 02:17:43;;;;;;;31.23;19.23;;;6.10;99.90;;;;;;5054504;28;20028;-67
2021/10/18 02:20:10;;;;;;;25.48;18.27;;;6.20;99.90;;;;;;5054160;28;20025;-66
2021/10/18 02:22:36;;;;;;;30.15;19.73;;;6.20;99.90;;;;;;5054637;28;20024;-67
2021/10/18 02:25:05;;;;;;;29.13;19.65;;;6.20;99.90;;;;;;5053458;28;20103;-66
2021/10/18 02:27:32;;;;;;;32.33;19.67;;;6.30;99.90;;;;;;5054257;28;20360;-67
2021/10/18 02:29:57;;;;;;;32.33;19.90;;;6.40;99.90;;;;;;5054552;28;20030;-67
2021/10/18 02:32:23;;;;;;;29.30;20.25;;;6.40;99.90;;;;;;5054422;28;20037;-67
2021/10/18 02:34:49;;;;;;;27.17;19.23;;;6.40;99.90;;;;;;5053102;28;20395;-66
2021/10/18 02:37:15;;;;;;;30.08;19.50;;;6.50;99.90;;;;;;5054425;28;20446;-68
2021/10/18 02:39:40;;;;;;;31.17;19.35;;;6.50;99.90;;;;;;5054080;28;20025;-68
2021/10/18 02:42:06;;;;;;;29.42;19.30;;;6.50;99.90;;;;;;5052506;28;20033;-68
2021/10/18 02:44:32;;;;;;;26.33;18.55;;;6.50;99.90;;;;;;5053165;28;20029;-67
2021/10/18 02:46:57;;;;;;;28.63;18.80;;;6.60;99.90;;;;;;5054244;28;20041;-67
2021/10/18 02:49:23;;;;;;;33.10;20.40;;;6.60;99.90;;;;;;5053103;28;20033;-67
2021/10/18 02:51:49;;;;;;;28.48;19.55;;;6.60;99.90;;;;;;5052662;28;20036;-68
2021/10/18 02:54:15;;;;;;;32.38;19.23;;;6.60;99.90;;;;;;5053909;28;20013;-68
2021/10/18 02:56:41;;;;;;;32.35;20.33;;;6.50;99.90;;;;;;5054141;28;20032;-68
2021/10/18 02:59:06;;;;;;;32.38;20.17;;;6.50;99.90;;;;;;5053556;28;20032;-68
2021/10/18 03:01:32;;;;;;;30.85;20.30;;;6.50;99.90;;;;;;5052609;28;20033;-67
2021/10/18 03:03:58;;;;;;;36.28;20.65;;;6.40;99.90;;;;;;5053998;28;20458;-68
2021/10/18 03:06:23;;;;;;;33.80;20.77;;;6.40;99.90;;;;;;5054012;28;20029;-66
2021/10/18 03:08:49;;;;;;;31.83;20.63;;;6.40;99.90;;;;;;5052161;28;20074;-66
2021/10/18 03:11:15;;;;;;;30.33;19.63;;;6.40;99.90;;;;;;5052189;28;20041;-65
2021/10/18 03:13:40;;;;;;;28.85;19.33;;;6.40;99.90;;;;;;5053942;28;20022;-66
2021/10/18 03:16:06;;;;;;;31.45;20.42;;;6.30;99.90;;;;;;5052760;28;20033;-65
2021/10/18 03:18:31;;;;;;;26.10;18.05;;;6.30;99.90;;;;;;5053904;28;20109;-65
2021/10/18 03:20:57;;;;;;;31.73;19.02;;;6.30;99.90;;;;;;5053855;28;20032;-67
2021/10/18 03:23:22;;;;;;;29.42;18.40;;;6.30;99.90;;;;;;5053837;28;20037;-67
2021/10/18 03:25:48;;;;;;;25.10;17.85;;;6.20;99.90;;;;;;5052666;28;20387;-67
2021/10/18 03:28:13;;;;;;;28.42;18.15;;;6.20;99.90;;;;;;5053561;28;20364;-67
2021/10/18 03:30:39;;;;;;;28.15;18.77;;;6.20;99.90;;;;;;5053760;28;20382;-67
2021/10/18 03:33:05;;;;;;;32.03;18.95;;;6.20;99.90;;;;;;5052210;28;20080;-67
2021/10/18 03:35:30;;;;;;;24.90;18.05;;;6.20;99.90;;;;;;5053694;28;20029;-67
2021/10/18 03:37:56;;;;;;;25.48;16.98;;;6.20;99.90;;;;;;5053704;28;20037;-66
2021/10/18 03:40:21;;;;;;;25.40;16.45;;;6.20;99.90;;;;;;5052281;28;20025;-66
2021/10/18 03:42:47;;;;;;;26.85;16.45;;;6.20;99.90;;;;;;5053583;28;20025;-68
2021/10/18 03:45:13;;;;;;;26.75;17.70;;;6.20;99.90;;;;;;5053627;28;20025;-68
2021/10/18 03:47:39;;;;;;;27.75;17.58;;;6.20;99.90;;;;;;5053046;28;20182;-67
2021/10/18 03:50:07;;;;;;;27.35;18.15;;;6.20;99.90;;;;;;5051770;28;20155;-67
2021/10/18 03:52:33;;;;;;;32.95;19.02;;;6.30;99.90;;;;;;5052068;28;20021;-66
2021/10/18 03:54:58;;;;;;;29.35;18.67;;;6.30;99.90;;;;;;5055859;28;20039;-68
2021/10/18 03:57:24;;;;;;;30.13;18.15;;;6.40;99.90;;;;;;5056835;28;20021;-68
2021/10/18 03:59:49;;;;;;;26.63;17.23;;;6.40;99.90;;;;;;5057367;28;20067;-68
2021/10/18 04:02:15;;;;;;;31.02;17.67;;;6.40;99.90;;;;;;5057094;28;20036;-67
2021/10/18 04:04:41;;;;;;;29.52;17.77;;;6.40;99.90;;;;;;5055810;28;20029;-67
2021/10/18 04:07:06;;;;;;;29.23;17.60;;;6.40;99.90;;;;;;5056905;28;20021;-68
2021/10/18 04:09:33;;;;;;;26.52;17.48;;;6.40;99.90;;;;;;5055480;28;20029;-68
2021/10/18 04:11:59;;;;;;;25.02;17.30;;;6.50;99.90;;;;;;5057041;28;20091;-68
2021/10/18 04:14:24;;;;;;;26.40;17.05;;;6.50;99.90;;;;;;5055953;28;20036;-68
2021/10/18 04:16:50;;;;;;;27.00;17.05;;;6.50;99.90;;;;;;5057096;28;20025;-68
2021/10/18 04:19:15;;;;;;;26.95;16.92;;;6.50;99.90;;;;;;5056766;28;20033;-68
2021/10/18 04:21:41;;;;;;;23.42;15.98;;;6.50;99.90;;;;;;5057003;28;20025;-68
2021/10/18 04:24:06;;;;;;;23.30;14.60;;;6.50;99.90;;;;;;5055485;28;20025;-67
2021/10/18 04:26:32;;;;;;;23.77;15.48;;;6.50;99.90;;;;;;5056359;28;20025;-67
2021/10/18 04:28:58;;;;;;;20.02;13.98;;;6.60;99.90;;;;;;5056868;28;20029;-67
2021/10/18 04:31:28;;;;;;;26.23;15.18;;;6.60;99.90;;;;;;5056751;28;20040;-68
2021/10/18 04:33:56;;;;;;;21.42;15.23;;;6.60;99.90;;;;;;5056752;28;20021;-67
2021/10/18 04:36:22;;;;;;;20.30;13.82;;;6.60;99.90;;;;;;5056723;28;20035;-65
2021/10/18 04:38:47;;;;;;;19.75;14.20;;;6.60;99.90;;;;;;5056657;28;20459;-65
2021/10/18 04:41:13;;;;;;;19.70;14.02;;;6.60;99.90;;;;;;5056614;28;20451;-66
2021/10/18 04:43:38;;;;;;;41.08;30.13;;;6.60;99.90;;;;;;5056552;28;20059;-66
2021/10/18 04:46:04;;;;;;;26.40;18.52;;;6.60;99.90;;;;;;5056469;28;20447;-67
2021/10/18 04:48:30;;;;;;;25.92;19.50;;;6.70;99.90;;;;;;5056400;28;20029;-66
2021/10/18 04:50:55;;;;;;;30.42;21.17;;;6.60;99.90;;;;;;5055846;28;20029;-66
2021/10/18 04:53:21;;;;;;;41.60;30.85;;;6.60;99.90;;;;;;5056178;28;20115;-65
2021/10/18 04:55:46;;;;;;;35.08;23.90;;;6.70;99.90;;;;;;5055121;28;20032;-65
2021/10/18 04:58:12;;;;;;;28.48;19.02;;;6.70;99.90;;;;;;5054487;28;20025;-67
2021/10/18 05:00:44;;;;;;;24.45;15.95;;;6.70;99.90;;;;;;5056229;28;20116;-67
2021/10/18 05:03:09;;;;;;;23.00;17.45;;;6.60;99.90;;;;;;5054364;28;20470;-67
2021/10/18 05:05:35;;;;;;;22.33;16.80;;;6.70;99.90;;;;;;5054689;28;20138;-67
2021/10/18 05:08:07;;;;;;;20.58;15.02;;;6.70;99.90;;;;;;5055887;28;20021;-67
2021/10/18 05:10:34;;;;;;;23.05;16.88;;;6.70;99.90;;;;;;5056122;28;20100;-67
2021/10/18 05:13:00;;;;;;;25.58;17.17;;;6.60;99.90;;;;;;5055264;28;20045;-67
2021/10/18 05:15:26;;;;;;;23.85;15.77;;;6.70;99.90;;;;;;5055984;28;20502;-67
2021/10/18 05:17:53;;;;;;;20.23;14.15;;;6.60;99.90;;;;;;5054138;28;20044;-67
2021/10/18 05:20:18;;;;;;;23.35;14.38;;;6.60;99.90;;;;;;5055883;28;20021;-68
2021/10/18 05:22:44;;;;;;;19.27;13.40;;;6.60;99.90;;;;;;5055865;28;20028;-68
2021/10/18 05:25:10;;;;;;;20.67;13.70;;;6.60;99.90;;;;;;5054632;28;20078;-68
2021/10/18 05:27:37;;;;;;;22.13;13.07;;;6.60;99.90;;;;;;5055784;28;20096;-68
2021/10/18 05:30:05;;;;;;;22.05;13.05;;;6.60;99.90;;;;;;5055721;28;20549;-68
2021/10/18 05:32:31;;;;;;;18.88;13.55;;;6.60;99.90;;;;;;5055554;28;20028;-65
2021/10/18 05:34:56;;;;;;;23.98;14.45;;;6.60;99.90;;;;;;5055628;28;20025;-67
2021/10/18 05:37:22;;;;;;;20.95;14.38;;;6.60;99.90;;;;;;5053858;28;20025;-69
2021/10/18 05:39:47;;;;;;;23.55;14.25;;;6.60;99.90;;;;;;5054071;28;20028;-68
2021/10/18 05:42:13;;;;;;;25.77;14.88;;;6.60;99.90;;;;;;5054911;28;20037;-67
2021/10/18 05:44:38;;;;;;;21.38;13.30;;;6.60;99.90;;;;;;5055421;28;20108;-67
2021/10/18 05:47:04;;;;;;;19.83;12.40;;;6.70;99.90;;;;;;5055317;28;20033;-67
2021/10/18 05:49:30;;;;;;;23.38;13.93;;;6.70;99.90;;;;;;5055247;28;20020;-68
2021/10/18 05:51:56;;;;;;;18.25;13.10;;;6.70;99.90;;;;;;5054925;28;20039;-68
2021/10/18 05:54:21;;;;;;;21.35;13.05;;;6.70;99.90;;;;;;5054603;28;20091;-67
2021/10/18 05:56:47;;;;;;;18.33;12.63;;;6.70;99.90;;;;;;5054892;28;20500;-68
2021/10/18 05:59:13;;;;;;;15.90;12.07;;;6.80;99.90;;;;;;5053711;28;20024;-68
2021/10/18 06:01:39;;;;;;;20.45;12.63;;;6.80;99.90;;;;;;5054812;28;20013;-69
2021/10/18 06:04:04;;;;;;;24.60;12.90;;;6.80;99.90;;;;;;5055031;28;20344;-68
2021/10/18 06:06:33;;;;;;;16.85;11.73;;;6.90;99.90;;;;;;5057617;28;20028;-68
2021/10/18 06:08:59;;;;;;;16.90;11.60;;;6.90;99.90;;;;;;5073832;28;20162;-69
2021/10/18 06:11:24;;;;;;;19.27;12.98;;;6.90;99.90;;;;;;5058150;28;20127;-68
2021/10/18 06:13:50;;;;;;;19.05;12.57;;;6.90;99.90;;;;;;5054834;28;20017;-68
2021/10/18 06:16:15;;;;;;;16.92;12.50;;;7.00;99.90;;;;;;5064375;28;20032;-68
2021/10/18 06:18:41;;;;;;;17.85;11.82;;;7.00;99.90;;;;;;5073810;28;20020;-68
2021/10/18 06:21:06;;;;;;;16.05;11.90;;;7.10;99.90;;;;;;5062775;28;20025;-68
2021/10/18 06:23:32;;;;;;;17.50;12.48;;;7.20;99.90;;;;;;5053980;28;20029;-68
2021/10/18 06:25:58;;;;;;;19.88;12.45;;;7.20;99.90;;;;;;5060790;28;20086;-68
2021/10/18 06:28:24;;;;;;;21.13;11.68;;;7.30;99.90;;;;;;5074450;28;20112;-68
2021/10/18 06:30:49;;;;;;;15.80;11.57;;;7.40;99.90;;;;;;5067267;28;20103;-67
2021/10/18 06:33:15;;;;;;;21.83;12.65;;;7.40;99.90;;;;;;5052956;28;20039;-69
2021/10/18 06:35:41;;;;;;;17.73;11.02;;;7.40;99.90;;;;;;5052264;28;20021;-67
2021/10/18 06:38:11;;;;;;;19.83;13.07;;;7.50;99.90;;;;;;5055788;28;20075;-68
2021/10/18 06:40:37;;;;;;;18.85;13.18;;;7.60;99.90;;;;;;5053740;28;20075;-68
2021/10/18 06:43:03;;;;;;;19.52;12.80;;;7.70;99.90;;;;;;5052270;28;20032;-68
2021/10/18 06:45:28;;;;;;;22.67;12.05;;;7.70;99.90;;;;;;5055128;28;20382;-69
2021/10/18 06:47:54;;;;;;;19.15;11.90;;;7.80;99.90;;;;;;5053935;28;20359;-69
2021/10/18 06:50:22;;;;;;;15.50;10.43;;;7.90;99.90;;;;;;5053468;28;20029;-68
2021/10/18 06:52:48;;;;;;;16.45;10.98;;;8.00;99.90;;;;;;5053991;28;20017;-69
2021/10/18 06:55:16;;;;;;;17.33;10.82;;;8.10;99.90;;;;;;5053099;28;20025;-69
2021/10/18 06:57:41;;;;;;;15.68;11.50;;;8.10;99.90;;;;;;5052590;28;20039;-69
2021/10/18 07:00:08;;;;;;;21.45;11.23;;;8.20;99.90;;;;;;5053356;28;20474;-69
2021/10/18 07:02:34;;;;;;;14.65;11.10;;;8.30;99.90;;;;;;5052506;28;20037;-69
2021/10/18 07:04:59;;;;;;;18.33;10.43;;;8.30;99.90;;;;;;5052973;28;20025;-68
2021/10/18 07:07:27;;;;;;;16.08;10.43;;;8.40;99.90;;;;;;5053531;28;20025;-68
2021/10/18 07:09:59;;;;;;;14.80;10.85;;;8.40;99.90;;;;;;5053287;28;20029;-69
2021/10/18 07:12:26;;;;;;;18.30;10.18;;;8.40;99.90;;;;;;5052319;28;20473;-69
2021/10/18 07:14:51;;;;;;;20.58;11.60;;;8.40;99.90;;;;;;5052840;28;20055;-70
2021/10/18 07:17:17;;;;;;;13.85;9.52;;;8.60;99.90;;;;;;5053133;28;20025;-68
2021/10/18 07:19:42;;;;;;;16.42;9.52;;;10.00;99.90;;;;;;5050143;28;20032;-68
2021/10/18 07:22:08;;;;;;;10.95;8.20;;;11.70;99.90;;;;;;5046946;28;20029;-69
2021/10/18 07:24:33;;;;;;;10.25;7.43;;;13.10;99.90;;;;;;5050342;28;20033;-70
2021/10/18 07:26:59;;;;;;;10.55;7.32;;;14.50;99.90;;;;;;5052855;28;20048;-70
2021/10/18 07:29:24;;;;;;;10.95;6.97;;;15.40;99.90;;;;;;5055755;28;20032;-67
2021/10/18 07:31:50;;;;;;;9.73;6.50;;;16.30;99.90;;;;;;5056802;28;20110;-67
2021/10/18 07:34:17;;;;;;;10.68;6.85;;;16.40;99.90;;;;;;5056818;28;20378;-67
2021/10/18 07:36:51;;;;;;;10.25;7.82;;;16.60;99.90;;;;;;5056477;28;20029;-67
2021/10/18 07:39:20;;;;;;;11.65;8.85;;;16.40;99.90;;;;;;5056953;28;20049;-67
2021/10/18 07:41:46;;;;;;;13.93;8.13;;;16.90;99.90;;;;;;5056668;28;20036;-68
2021/10/18 07:44:12;;;;;;;11.45;7.10;;;16.30;99.90;;;;;;5056793;28;20435;-67
2021/10/18 07:46:38;;;;;;;9.82;6.57;;;16.40;99.90;;;;;;5056332;28;20032;-68
2021/10/18 07:49:04;;;;;;;10.13;6.78;;;17.10;99.90;;;;;;5057030;28;20091;-68
2021/10/18 07:51:30;;;;;;;11.13;6.28;;;16.70;99.90;;;;;;5056241;28;20036;-68
2021/10/18 07:53:56;;;;;;;11.77;6.90;;;16.00;99.90;;;;;;5056792;28;20505;-67
2021/10/18 07:56:21;;;;;;;11.43;6.70;;;15.30;99.90;;;;;;5056942;28;20370;-67
2021/10/18 07:58:47;;;;;;;13.07;6.95;;;14.50;99.90;;;;;;5055345;28;20025;-67
2021/10/18 08:01:12;;;;;;;12.60;7.53;;;14.10;99.90;;;;;;5055446;28;20036;-67
2021/10/18 08:03:38;;;;;;;12.18;7.10;;;13.90;99.90;;;;;;5055116;28;20033;-67
2021/10/18 08:06:03;;;;;;;14.20;7.32;;;13.90;99.90;;;;;;5056192;28;20036;-68
2021/10/18 08:08:30;;;;;;;8.40;7.50;;;13.70;99.90;;;;;;5056622;28;20025;-66
2021/10/18 08:10:57;;;;;;;10.80;8.18;;;13.40;99.90;;;;;;5055701;28;20029;-69
2021/10/18 08:13:23;;;;;;;12.05;7.05;;;14.00;99.90;;;;;;5055998;28;20033;-68
2021/10/18 08:15:48;;;;;;;14.30;7.93;;;14.90;99.90;;;;;;5055625;28;20423;-68
2021/10/18 08:18:14;;;;;;;15.63;7.93;;;15.90;99.90;;;;;;5055197;28;20029;-69
2021/10/18 08:20:41;;;;;;;14.20;8.45;;;16.00;99.90;;;;;;5056026;28;20031;-66
2021/10/18 08:23:07;;;;;;;12.30;7.38;;;16.30;99.90;;;;;;5056159;28;20048;-70
2021/10/18 08:25:32;;;;;;;10.73;7.13;;;15.60;99.90;;;;;;5057861;28;20029;-69
2021/10/18 08:27:58;;;;;;;12.63;7.43;;;15.90;99.90;;;;;;5066714;28;20039;-68
2021/10/18 08:30:23;;;;;;;16.23;8.30;;;16.00;99.90;;;;;;5055700;28;20032;-69
2021/10/18 08:32:49;;;;;;;14.07;8.82;;;15.80;99.90;;;;;;5055794;28;20024;-69
2021/10/18 08:35:15;;;;;;;11.20;8.00;;;14.90;99.90;;;;;;5055849;28;20029;-68
2021/10/18 08:40:31;;;;;;;13.27;8.63;;;15.70;99.90;;;;;;5054709;28;20029;-68
2021/10/18 08:43:00;;;;;;;13.57;8.48;;;15.20;99.90;;;;;;5055334;28;20033;-68
2021/10/18 08:45:26;;;;;;;17.20;9.35;;;15.20;99.90;;;;;;5058837;28;20071;-68
2021/10/18 08:47:53;;;;;;;10.93;8.18;;;14.80;99.90;;;;;;5061739;28;20033;-69
2021/10/18 08:50:19;;;;;;;12.98;8.95;;;15.00;99.90;;;;;;5076141;28;20025;-68
2021/10/18 08:52:45;;;;;;;15.48;8.70;;;15.00;99.90;;;;;;5074529;28;20025;-68
2021/10/18 08:55:11;;;;;;;11.90;9.40;;;15.30;99.90;;;;;;5073434;28;20107;-68
2021/10/18 08:57:36;;;;;;;16.48;9.45;;;15.70;99.90;;;;;;5054386;28;20155;-68
2021/10/18 09:00:06;;;;;;;15.50;9.65;;;15.50;99.90;;;;;;5054359;28;20447;-68
2021/10/18 09:02:36;;;;;;;10.65;8.70;;;15.50;99.90;;;;;;5054757;28;20181;-69
2021/10/18 09:05:05;;;;;;;21.55;10.80;;;15.30;99.90;;;;;;5054702;28;20025;-68
2021/10/18 09:07:35;;;;;;;20.83;10.07;;;15.20;99.90;;;;;;5057251;28;20025;-69
2021/10/18 09:10:01;;;;;;;16.63;10.30;;;14.90;99.90;;;;;;5073329;28;20032;-68
2021/10/18 09:12:31;;;;;;;16.45;10.07;;;14.90;99.90;;;;;;5070485;28;20390;-68
2021/10/18 09:15:17;;;;;;;18.23;9.98;;;14.90;99.90;;;;;;5054985;28;20482;-69
2021/10/18 09:17:43;;;;;;;18.00;10.38;;;14.90;99.90;;;;;;5054128;28;20051;-68
2021/10/18 09:20:31;;;;;;;14.80;10.73;;;14.80;99.90;;;;;;5055163;28;20529;-68
2021/10/18 09:23:24;;;;;;;17.15;11.80;;;14.90;99.90;;;;;;5054780;28;20386;-69
2021/10/18 09:25:51;;;;;;;18.80;11.50;;;15.10;99.90;;;;;;5055345;28;20028;-68
2021/10/18 09:28:23;;;;;;;16.63;11.30;;;15.10;99.90;;;;;;5055198;28;20029;-68
2021/10/18 09:30:49;;;;;;;18.75;11.10;;;15.10;99.90;;;;;;5053843;28;20484;-68
2021/10/18 09:33:25;;;;;;;18.92;11.38;;;15.30;99.90;;;;;;5055561;28;20028;-68
2021/10/18 09:35:52;;;;;;;19.25;11.18;;;15.00;99.90;;;;;;5054658;28;20120;-70
2021/10/18 09:38:20;;;;;;;16.38;11.43;;;15.10;99.90;;;;;;5055025;28;20027;-68
2021/10/18 09:40:46;;;;;;;18.52;11.50;;;15.20;99.90;;;;;;5054909;28;20021;-69
2021/10/18 09:43:13;;;;;;;17.73;11.07;;;15.30;99.90;;;;;;5054178;28;20082;-67
2021/10/18 09:45:58;;;;;;;25.02;11.13;;;15.40;99.90;;;;;;5054139;28;20025;-68
2021/10/18 10:53:49;;;;;;;14.45;9.32;;;16.50;99.90;;;;;;5098333;28;20042;-69
2021/10/18 10:56:21;;;;;;;15.05;9.05;;;16.30;99.90;;;;;;5090749;28;20098;-69
2021/10/18 10:58:50;;;;;;;14.40;8.27;;;15.90;99.90;;;;;;5090517;28;20031;-68
2021/10/18 11:04:36;;;;;;;15.18;8.25;;;16.00;99.90;;;;;;5068230;28;20769;-69
2021/10/18 11:07:07;;;;;;;14.00;7.72;;;16.30;99.90;;;;;;5057199;28;20040;-68
2021/10/18 11:09:41;;;;;;;13.60;8.23;;;16.80;99.90;;;;;;5049685;28;20025;-68
2021/10/18 11:12:09;;;;;;;11.80;8.02;;;17.10;99.90;;;;;;5050533;28;20028;-68
2021/10/18 11:14:35;;;;;;;14.70;8.48;;;17.00;99.90;;;;;;5049369;28;20032;-68
2021/10/18 11:17:01;;;;;;;15.65;7.88;;;16.80;99.90;;;;;;5060603;28;20394;-69
2021/10/18 11:19:26;;;;;;;16.05;10.13;;;16.60;99.90;;;;;;5069331;28;20020;-68
2021/10/18 11:21:57;;;;;;;16.80;7.53;;;16.60;99.90;;;;;;5069818;28;20025;-68
2021/10/18 11:24:23;;;;;;;12.98;8.07;;;16.70;99.90;;;;;;5059485;28;20020;-68
2021/10/18 11:26:54;;;;;;;12.32;7.78;;;16.70;99.90;;;;;;5078538;28;20020;-68
2021/10/18 11:29:30;;;;;;;12.93;7.15;;;16.70;99.90;;;;;;5066590;28;20039;-69
2021/10/18 11:32:06;;;;;;;15.90;9.57;;;16.60;99.90;;;;;;5062206;28;20022;-68
2021/10/18 11:34:32;;;;;;;18.52;8.20;;;16.70;99.90;;;;;;5073868;28;20020;-69
2021/10/18 11:36:58;;;;;;;17.33;8.60;;;16.70;99.90;;;;;;5076722;28;20036;-69
2021/10/18 11:39:26;;;;;;;12.05;7.93;;;17.00;99.90;;;;;;5064703;28;20082;-69
2021/10/18 11:50:08;;;;;;;11.02;6.90;;;17.00;99.90;;;;;;5073253;28;20425;-69
2021/10/18 11:52:40;;;;;;;12.73;7.18;;;16.60;99.90;;;;;;5070649;28;20075;-69
2021/10/18 11:55:08;;;;;;;14.27;6.10;;;16.70;99.90;;;;;;5077519;28;20473;-69
2021/10/18 11:57:36;;;;;;;11.95;6.00;;;16.70;99.90;;;;;;5090680;28;20021;-69
2021/10/18 12:00:02;;;;;;;13.77;5.72;;;16.80;99.90;;;;;;5083630;28;20039;-70
2021/10/18 12:02:29;;;;;;;7.38;5.68;;;17.00;99.90;;;;;;5070479;28;20025;-69
2021/10/18 12:04:59;;;;;;;9.68;5.30;;;17.20;99.90;;;;;;5075350;28;20024;-69
2021/10/18 12:07:42;;;;;;;11.07;5.50;;;17.00;99.90;;;;;;5080119;28;20074;-69
2021/10/18 12:10:27;;;;;;;11.10;5.80;;;17.00;99.90;;;;;;5075337;28;20028;-69
2021/10/18 12:13:18;;;;;;;8.35;4.68;;;17.10;99.90;;;;;;5072298;28;20078;-68
2021/10/18 12:15:51;;;;;;;9.15;4.60;;;17.30;99.90;;;;;;5061938;28;20410;-68
2021/10/18 12:18:22;;;;;;;7.32;5.13;;;17.60;99.90;;;;;;5068676;28;20031;-69
2021/10/18 12:20:50;;;;;;;11.13;4.88;;;17.70;99.90;;;;;;5062364;28;20025;-70
2021/10/18 12:23:20;;;;;;;11.18;4.78;;;17.50;99.90;;;;;;5072827;28;20112;-68
2021/10/18 12:25:55;;;;;;;11.95;4.75;;;17.40;99.90;;;;;;5067588;28;20029;-69
2021/10/18 12:28:35;;;;;;;7.57;4.22;;;17.30;99.90;;;;;;5069685;28;20155;-68
2021/10/18 12:31:01;;;;;;;6.65;4.57;;;17.20;99.90;;;;;;5079646;28;20370;-68
2021/10/18 12:33:41;;;;;;;7.38;4.05;;;17.20;99.90;;;;;;5067984;28;20025;-68
2021/10/18 12:36:07;;;;;;;10.00;4.15;;;17.20;99.90;;;;;;5062092;28;20056;-69
2021/10/18 12:38:36;;;;;;;7.72;4.40;;;17.20;99.90;;;;;;5068367;28;20466;-69
2021/10/18 12:41:07;;;;;;;7.43;4.00;;;17.10;99.90;;;;;;5071631;28;20048;-69
2021/10/18 12:43:33;;;;;;;9.90;5.15;;;17.20;99.90;;;;;;5069104;28;20043;-69
2021/10/18 12:46:14;;;;;;;8.27;4.03;;;17.40;99.90;;;;;;5069055;28;20029;-68
2021/10/18 12:48:40;;;;;;;9.90;3.85;;;17.50;99.90;;;;;;5064067;28;20036;-69
2021/10/18 12:51:05;;;;;;;8.90;4.00;;;17.60;99.90;;;;;;5077365;28;20032;-68
2021/10/18 12:53:31;;;;;;;4.22;3.42;;;17.70;99.90;;;;;;5084631;28;20488;-69
2021/10/18 12:55:58;;;;;;;8.25;4.30;;;17.50;99.90;;;;;;5084847;28;20052;-68
2021/10/18 12:58:25;;;;;;;10.55;3.92;;;17.30;99.90;;;;;;5066718;28;20025;-69
2021/10/18 13:00:51;;;;;;;6.88;3.97;;;17.30;99.90;;;;;;5060768;28;20037;-68
2021/10/18 13:03:19;;;;;;;6.13;3.40;;;17.30;99.90;;;;;;5075507;28;20039;-68
2021/10/18 13:05:48;;;;;;;6.18;3.58;;;17.30;99.90;;;;;;5061213;28;20036;-68
2021/10/18 13:08:16;;;;;;;8.27;4.00;;;17.20;99.90;;;;;;5074354;28;20025;-68
2021/10/18 13:10:43;;;;;;;6.65;3.42;;;17.20;99.90;;;;;;5075120;28;20370;-68
2021/10/18 13:13:11;;;;;;;6.20;3.58;;;17.20;99.90;;;;;;5055485;28;20327;-68
2021/10/18 13:15:38;;;;;;;9.07;3.85;;;17.20;99.90;;;;;;5055589;28;20353;-69
2021/10/18 13:18:06;;;;;;;6.47;3.88;;;17.30;99.90;;;;;;5057647;28;20025;-68
2021/10/18 13:20:31;;;;;;;8.65;3.95;;;17.40;99.90;;;;;;5055364;28;20044;-68
2021/10/18 13:23:00;;;;;;;6.95;3.97;;;17.40;99.90;;;;;;5067659;28;20052;-68
2021/10/18 13:25:28;;;;;;;7.70;3.90;;;17.20;99.90;;;;;;5055292;28;20029;-68
2021/10/18 13:27:55;;;;;;;8.52;3.65;;;17.30;99.90;;;;;;5053882;28;20119;-69
2021/10/18 13:30:22;;;;;;;6.90;3.60;;;17.50;99.90;;;;;;5054114;28;20350;-69
2021/10/18 13:32:50;;;;;;;7.85;3.60;;;17.50;99.90;;;;;;5056768;28;20463;-68
2021/10/18 13:35:16;;;;;;;6.75;4.00;;;17.40;99.90;;;;;;5055094;28;20389;-68
2021/10/18 13:37:44;;;;;;;5.32;3.72;;;17.30;99.90;;;;;;5066855;28;20029;-68
2021/10/18 13:40:11;;;;;;;5.60;3.40;;;17.30;99.90;;;;;;5074849;28;20021;-68
2021/10/18 13:42:38;;;;;;;4.95;3.72;;;17.30;99.90;;;;;;5073460;28;20020;-68
2021/10/18 13:45:04;;;;;;;4.43;3.17;;;17.40;99.90;;;;;;5062533;28;20083;-68
2021/10/18 13:47:30;;;;;;;8.10;3.30;;;17.30;99.90;;;;;;5055133;28;20025;-68
2021/10/18 13:49:56;;;;;;;6.80;3.83;;;17.40;99.90;;;;;;5054661;28;20580;-69
2021/10/18 13:52:22;;;;;;;9.45;3.80;;;17.50;99.90;;;;;;5056341;28;20359;-68
2021/10/18 13:54:50;;;;;;;8.85;3.97;;;17.50;99.90;;;;;;5054682;28;20021;-68
2021/10/18 13:57:16;;;;;;;9.07;4.00;;;17.50;99.90;;;;;;5061502;28;20505;-68